createdAt,value
2022-09-09T00:00:15.762Z,15.80
2022-09-09T00:02:50.923Z,15.90
2022-09-09T00:05:28.428Z,15.90
2022-09-09T00:08:02.625Z,16.00
2022-09-09T00:10:35.498Z,16.10
2022-09-09T00:13:19.102Z,16.10
2022-09-09T00:15:58.642Z,16.10
2022-09-09T00:18:33.266Z,16.20
2022-09-09T00:21:09.157Z,16.10
2022-09-09T00:23:43.062Z,16.00
2022-09-09T00:26:19.306Z,16.00
2022-09-09T00:28:58.803Z,16.00
2022-09-09T00:31:31.836Z,16.00
2022-09-09T00:34:06.573Z,16.10
2022-09-09T00:36:37.484Z,16.10
2022-09-09T00:39:07.619Z,16.00
2022-09-09T00:41:48.124Z,16.00
2022-09-09T00:44:31.795Z,16.00
2022-09-09T00:47:15.765Z,15.90
2022-09-09T00:49:59.291Z,15.90
2022-09-09T00:52:40.846Z,15.90
2022-09-09T00:55:19.781Z,15.90
2022-09-09T00:57:52.853Z,15.90
2022-09-09T01:00:31.576Z,15.80
2022-09-09T01:03:14.016Z,15.90
2022-09-09T01:05:49.056Z,15.90
2022-09-09T01:08:35.909Z,16.00
2022-09-09T01:11:05.926Z,16.00
2022-09-09T01:13:39.223Z,16.00
2022-09-09T01:16:14.865Z,16.00
2022-09-09T01:18:48.551Z,16.00
2022-09-09T01:21:26.925Z,16.00
2022-09-09T01:24:21.441Z,16.10
2022-09-09T01:26:55.167Z,16.10
2022-09-09T01:29:25.685Z,16.20
2022-09-09T01:32:00.607Z,16.20
2022-09-09T01:34:35.120Z,16.20
2022-09-09T01:37:09.310Z,16.30
2022-09-09T01:39:40.950Z,16.30
2022-09-09T01:42:17.256Z,16.20
2022-09-09T01:44:47.020Z,16.20
2022-09-09T01:47:18.742Z,16.30
2022-09-09T01:49:48.523Z,16.20
2022-09-09T01:52:18.284Z,16.20
2022-09-09T01:54:48.071Z,16.20
2022-09-09T01:57:25.766Z,16.30
2022-09-09T02:00:07.055Z,16.20
2022-09-09T02:02:42.257Z,16.10
2022-09-09T02:05:24.622Z,16.20
2022-09-09T02:07:59.640Z,16.20
2022-09-09T02:10:36.270Z,16.20
2022-09-09T02:13:13.419Z,16.20
2022-09-09T02:15:49.135Z,16.20
2022-09-09T02:18:23.267Z,16.10
2022-09-09T02:20:55.419Z,16.00
2022-09-09T02:23:25.282Z,16.10
2022-09-09T02:25:57.747Z,16.10
2022-09-09T02:28:33.894Z,16.10
2022-09-09T02:31:04.540Z,16.00
2022-09-09T02:33:40.682Z,15.90
2022-09-09T02:36:13.482Z,15.90
2022-09-09T02:38:51.466Z,15.80
2022-09-09T02:41:22.803Z,15.80
2022-09-09T02:43:55.258Z,15.80
2022-09-09T02:46:45.976Z,15.70
2022-09-09T02:49:22.303Z,15.60
2022-09-09T02:51:58.894Z,15.60
2022-09-09T02:54:32.753Z,15.60
2022-09-09T02:57:07.656Z,15.50
2022-09-09T02:59:40.287Z,15.50
2022-09-09T03:02:12.342Z,15.40
2022-09-09T03:04:42.716Z,15.40
2022-09-09T03:07:13.071Z,15.40
2022-09-09T03:09:43.101Z,15.30
2022-09-09T03:12:13.294Z,15.30
2022-09-09T03:14:46.903Z,15.30
2022-09-09T03:17:16.803Z,15.20
2022-09-09T03:19:46.493Z,15.10
2022-09-09T03:22:16.218Z,15.10
2022-09-09T03:24:47.689Z,15.10
2022-09-09T03:27:18.362Z,15.10
2022-09-09T03:29:52.602Z,15.10
2022-09-09T03:32:23.449Z,15.10
2022-09-09T03:34:53.196Z,15.20
2022-09-09T03:37:23.637Z,15.20
2022-09-09T03:39:55.373Z,15.10
2022-09-09T03:42:25.509Z,15.10
2022-09-09T03:44:58.876Z,15.20
2022-09-09T03:47:28.617Z,15.20
2022-09-09T03:49:58.354Z,15.20
2022-09-09T03:52:28.353Z,15.20
2022-09-09T03:54:58.132Z,15.20
2022-09-09T03:57:27.965Z,15.30
2022-09-09T04:00:02.063Z,15.20
2022-09-09T04:02:31.967Z,15.30
2022-09-09T04:05:02.099Z,15.30
2022-09-09T04:07:31.951Z,15.40
2022-09-09T04:10:01.901Z,15.40
2022-09-09T04:12:31.669Z,15.40
2022-09-09T04:15:04.029Z,15.40
2022-09-09T04:17:34.460Z,15.50
2022-09-09T04:20:04.909Z,15.40
2022-09-09T04:22:35.372Z,15.50
2022-09-09T04:25:05.109Z,15.50
2022-09-09T04:27:34.839Z,15.50
2022-09-09T04:30:07.871Z,15.40
2022-09-09T04:32:37.873Z,15.50
2022-09-09T04:35:08.207Z,15.50
2022-09-09T04:37:37.927Z,15.60
2022-09-09T04:40:10.787Z,15.60
2022-09-09T04:42:44.968Z,15.80
2022-09-09T04:45:17.573Z,15.90
2022-09-09T04:47:47.488Z,15.90
2022-09-09T04:50:17.732Z,15.90
2022-09-09T04:52:47.429Z,15.90
2022-09-09T04:55:17.764Z,15.90
2022-09-09T04:57:47.589Z,15.90
2022-09-09T05:00:20.758Z,15.80
2022-09-09T05:02:50.816Z,15.70
2022-09-09T05:05:20.694Z,15.70
2022-09-09T05:07:50.527Z,15.70
2022-09-09T05:10:20.241Z,15.70
2022-09-09T05:12:57.160Z,15.70
2022-09-09T05:15:29.678Z,15.60
2022-09-09T05:18:01.563Z,15.70
2022-09-09T05:20:31.726Z,16.40
2022-09-09T05:23:01.475Z,16.30
2022-09-09T05:25:31.197Z,16.00
2022-09-09T05:28:02.629Z,15.80
2022-09-09T05:30:34.920Z,15.90
2022-09-09T05:33:04.623Z,16.00
2022-09-09T05:35:34.484Z,16.00
2022-09-09T05:38:04.223Z,16.00
2022-09-09T05:40:33.928Z,16.10
2022-09-09T05:43:05.439Z,16.10
2022-09-09T05:45:37.767Z,16.20
2022-09-09T05:48:08.859Z,16.30
2022-09-09T05:50:38.601Z,16.40
2022-09-09T05:53:08.287Z,16.40
2022-09-09T05:55:38.036Z,16.50
2022-09-09T05:58:07.935Z,16.50
2022-09-09T06:00:40.290Z,16.60
2022-09-09T06:03:10.089Z,16.60
2022-09-09T06:05:39.892Z,16.70
2022-09-09T06:08:09.795Z,16.80
2022-09-09T06:10:39.561Z,17.00
2022-09-09T06:13:11.017Z,16.90
2022-09-09T06:15:43.308Z,16.90
2022-09-09T06:18:13.219Z,16.90
2022-09-09T06:20:42.928Z,16.90
2022-09-09T06:23:13.306Z,16.90
2022-09-09T06:25:43.189Z,16.90
2022-09-09T06:28:12.899Z,17.00
2022-09-09T06:30:45.568Z,17.10
2022-09-09T06:33:15.329Z,17.10
2022-09-09T06:35:45.928Z,17.30
2022-09-09T06:38:15.655Z,17.40
2022-09-09T06:40:45.361Z,17.50
2022-09-09T06:43:15.328Z,17.40
2022-09-09T06:45:47.616Z,17.40
2022-09-09T06:48:17.314Z,17.40
2022-09-09T06:50:47.900Z,17.30
2022-09-09T06:53:20.456Z,17.60
2022-09-09T06:55:50.760Z,17.70
2022-09-09T06:58:20.443Z,17.80
2022-09-09T07:00:53.950Z,17.80
2022-09-09T07:03:23.651Z,17.90
2022-09-09T07:05:58.962Z,18.00
2022-09-09T07:08:29.199Z,18.00
2022-09-09T07:11:10.215Z,18.00
2022-09-09T07:13:43.093Z,18.00
2022-09-09T07:16:17.471Z,18.30
2022-09-09T07:18:47.608Z,18.10
2022-09-09T07:21:18.317Z,18.20
2022-09-09T07:23:50.917Z,18.40
2022-09-09T07:26:22.870Z,18.60
2022-09-09T07:28:53.029Z,18.80
2022-09-09T07:31:27.341Z,18.80
2022-09-09T07:33:57.224Z,18.80
2022-09-09T07:36:33.088Z,18.80
2022-09-09T07:39:05.541Z,18.90
2022-09-09T07:41:37.611Z,18.70
2022-09-09T07:44:11.771Z,18.70
2022-09-09T07:46:46.130Z,18.70
2022-09-09T07:49:16.316Z,18.80
2022-09-09T07:51:49.051Z,18.90
2022-09-09T07:54:21.600Z,19.00
2022-09-09T07:56:51.373Z,19.00
2022-09-09T07:59:21.126Z,19.10
2022-09-09T08:01:55.828Z,19.40
2022-09-09T08:04:27.665Z,19.70
2022-09-09T08:06:59.286Z,19.80
2022-09-09T08:09:33.371Z,20.10
2022-09-09T08:12:03.630Z,19.80
2022-09-09T08:14:33.345Z,19.90
2022-09-09T08:17:05.685Z,19.90
2022-09-09T08:19:36.884Z,19.80
2022-09-09T08:22:07.064Z,20.00
2022-09-09T08:24:36.987Z,20.10
2022-09-09T08:27:07.578Z,20.10
2022-09-09T08:29:38.905Z,20.30
2022-09-09T08:32:11.224Z,20.60
2022-09-09T08:34:41.564Z,20.70
2022-09-09T08:37:11.401Z,21.00
2022-09-09T08:39:41.131Z,21.20
2022-09-09T08:42:28.935Z,21.20
2022-09-09T08:45:14.901Z,21.10
2022-09-09T08:47:58.779Z,21.30
2022-09-09T08:50:30.939Z,21.40
2022-09-09T08:53:06.843Z,21.30
2022-09-09T08:55:45.095Z,21.50
2022-09-09T08:58:19.028Z,21.60
2022-09-09T09:01:09.711Z,21.80
2022-09-09T09:03:51.619Z,21.70
2022-09-09T09:06:35.421Z,22.10
2022-09-09T09:09:09.749Z,21.80
2022-09-09T09:11:41.593Z,22.10
2022-09-09T09:14:16.867Z,22.60
2022-09-09T09:16:54.647Z,22.80
2022-09-09T09:19:27.650Z,23.00
2022-09-09T09:22:04.438Z,22.50
2022-09-09T09:24:45.934Z,21.90
2022-09-09T09:27:17.934Z,21.20
2022-09-09T09:30:17.555Z,21.40
2022-09-09T09:32:42.808Z,21.50
2022-09-09T09:35:17.519Z,21.80
2022-09-09T09:40:37.523Z,21.60
2022-09-09T09:43:09.694Z,21.60
2022-09-09T09:45:55.366Z,21.90
2022-09-09T09:48:31.817Z,22.00
2022-09-09T09:51:08.240Z,22.30
2022-09-09T09:53:40.266Z,22.60
2022-09-09T09:56:12.961Z,22.60
2022-09-09T09:58:54.987Z,22.80
2022-09-09T10:01:28.770Z,22.90
2022-09-09T10:04:06.528Z,22.90
2022-09-09T10:06:41.673Z,23.00
2022-09-09T10:09:25.989Z,23.20
2022-09-09T10:11:59.295Z,23.40
2022-09-09T10:14:39.027Z,23.20
2022-09-09T10:17:29.373Z,23.20
2022-09-09T10:20:20.288Z,22.80
2022-09-09T10:22:55.833Z,23.10
2022-09-09T10:25:48.466Z,23.10
2022-09-09T10:28:35.928Z,23.40
2022-09-09T10:31:18.375Z,23.20
2022-09-09T10:33:54.272Z,23.50
2022-09-09T10:36:27.016Z,23.80
2022-09-09T10:39:04.651Z,24.00
2022-09-09T10:41:49.535Z,23.60
2022-09-09T10:44:35.396Z,23.50
2022-09-09T10:47:21.425Z,22.60
2022-09-09T10:50:16.484Z,22.00
2022-09-09T10:52:56.900Z,21.20
2022-09-09T10:55:37.242Z,21.20
2022-09-09T10:58:09.386Z,21.30
2022-09-09T11:00:44.011Z,21.30
2022-09-09T11:03:23.442Z,21.60
2022-09-09T11:05:58.461Z,21.10
2022-09-09T11:08:30.587Z,21.20
2022-09-09T11:11:06.762Z,21.00
2022-09-09T11:13:43.777Z,20.90
2022-09-09T11:16:27.294Z,20.70
2022-09-09T11:19:03.459Z,20.60
2022-09-09T11:21:38.191Z,20.30
2022-09-09T11:24:14.212Z,20.20
2022-09-09T11:26:51.279Z,19.80
2022-09-09T11:29:51.783Z,19.30
2022-09-09T11:32:45.542Z,18.70
2022-09-09T11:35:30.899Z,18.80
2022-09-09T11:38:23.237Z,18.60
2022-09-09T11:41:01.574Z,18.70
2022-09-09T11:43:36.782Z,18.70
2022-09-09T11:46:08.390Z,18.50
2022-09-09T11:48:39.685Z,18.80
2022-09-09T11:51:16.711Z,19.00
2022-09-09T11:53:54.809Z,19.20
2022-09-09T11:56:30.900Z,19.30
2022-09-09T11:59:08.275Z,19.20
2022-09-09T12:01:40.257Z,19.20
2022-09-09T12:04:22.374Z,19.50
2022-09-09T12:06:56.172Z,19.60
2022-09-09T12:09:32.667Z,19.60
2022-09-09T12:12:29.437Z,20.30
2022-09-09T12:15:04.782Z,20.30
2022-09-09T12:17:40.574Z,20.60
2022-09-09T12:20:18.527Z,21.00
2022-09-09T12:23:16.830Z,20.80
2022-09-09T12:26:07.784Z,21.10
2022-09-09T12:28:48.486Z,21.80
2022-09-09T12:31:27.534Z,22.00
2022-09-09T12:33:57.302Z,22.20
2022-09-09T12:36:32.526Z,22.10
2022-09-09T12:39:13.529Z,21.80
2022-09-09T12:41:43.783Z,22.10
2022-09-09T12:44:14.078Z,22.20
2022-09-09T12:46:49.836Z,22.60
2022-09-09T12:49:35.113Z,22.40
2022-09-09T12:52:08.895Z,22.50
2022-09-09T12:54:40.263Z,22.20
2022-09-09T12:57:16.138Z,22.20
2022-09-09T12:59:49.276Z,22.10
2022-09-09T13:02:26.866Z,22.50
2022-09-09T13:04:57.046Z,22.30
2022-09-09T13:07:27.355Z,22.20
2022-09-09T13:09:57.094Z,22.30
2022-09-09T13:12:27.374Z,22.40
2022-09-09T13:14:59.780Z,22.60
2022-09-09T13:17:32.476Z,22.60
2022-09-09T13:20:03.568Z,22.60
2022-09-09T13:22:37.810Z,22.80
2022-09-09T13:25:20.786Z,23.10
2022-09-09T13:27:57.684Z,23.00
2022-09-09T13:30:33.369Z,22.90
2022-09-09T13:33:24.136Z,23.50
2022-09-09T13:35:57.422Z,23.30
2022-09-09T13:38:27.988Z,23.60
2022-09-09T13:41:03.302Z,23.40
2022-09-09T13:43:35.498Z,23.50
2022-09-09T13:46:07.217Z,23.40
2022-09-09T13:48:39.555Z,23.00
2022-09-09T13:51:29.388Z,23.10
2022-09-09T13:54:00.190Z,23.30
2022-09-09T13:56:30.045Z,23.00
2022-09-09T13:58:59.783Z,23.10
2022-09-09T14:01:29.905Z,23.50
2022-09-09T14:04:02.544Z,23.70
2022-09-09T14:06:33.598Z,23.10
2022-09-09T14:09:03.372Z,23.10
2022-09-09T14:11:33.103Z,22.90
2022-09-09T14:14:02.858Z,22.70
2022-09-09T14:16:32.969Z,22.60
2022-09-09T14:19:05.685Z,22.70
2022-09-09T14:21:35.414Z,22.80
2022-09-09T14:24:05.635Z,22.60
2022-09-09T14:26:35.664Z,22.50
2022-09-09T14:29:05.451Z,22.60
2022-09-09T14:31:35.174Z,23.10
2022-09-09T14:34:07.509Z,23.20
2022-09-09T14:36:37.297Z,23.30
2022-09-09T14:39:07.604Z,22.90
2022-09-09T14:41:37.484Z,22.70
2022-09-09T14:44:07.221Z,22.90
2022-09-09T14:46:36.952Z,23.10
2022-09-09T14:49:09.365Z,23.00
2022-09-09T14:51:39.122Z,22.90
2022-09-09T14:54:09.109Z,22.70
2022-09-09T14:56:39.104Z,22.80
2022-09-09T14:59:08.890Z,22.40
2022-09-09T15:01:38.979Z,22.30
2022-09-09T15:04:11.469Z,22.10
2022-09-09T15:06:43.389Z,22.00
2022-09-09T15:09:13.300Z,22.00
2022-09-09T15:11:43.068Z,22.00
2022-09-09T15:14:13.342Z,22.00
2022-09-09T15:16:43.856Z,21.80
2022-09-09T15:19:16.274Z,21.90
2022-09-09T15:21:46.042Z,21.70
2022-09-09T15:24:17.058Z,21.50
2022-09-09T15:26:46.879Z,21.70
2022-09-09T15:29:16.905Z,21.50
2022-09-09T15:31:46.988Z,21.60
2022-09-09T15:34:19.433Z,21.50
2022-09-09T15:36:49.870Z,21.80
2022-09-09T15:39:22.588Z,21.90
2022-09-09T15:41:52.649Z,21.90
2022-09-09T15:44:24.517Z,21.90
2022-09-09T15:46:55.542Z,21.90
2022-09-09T15:49:29.535Z,21.80
2022-09-09T15:52:03.269Z,21.60
2022-09-09T15:54:36.384Z,21.40
2022-09-09T15:57:10.175Z,21.40
2022-09-09T15:59:41.265Z,21.30
2022-09-09T16:02:11.353Z,21.10
2022-09-09T16:04:43.797Z,21.00
2022-09-09T16:07:14.532Z,20.90
2022-09-09T16:09:44.449Z,20.80
2022-09-09T16:12:15.487Z,20.90
2022-09-09T16:14:46.352Z,20.80
2022-09-09T16:17:16.646Z,20.70
2022-09-09T16:19:49.446Z,20.70
2022-09-09T16:22:19.295Z,20.70
2022-09-09T16:24:49.020Z,20.50
2022-09-09T16:27:19.129Z,19.40
2022-09-09T16:29:50.249Z,18.90
2022-09-09T16:32:20.213Z,18.70
2022-09-09T16:34:52.755Z,18.20
2022-09-09T16:37:22.872Z,18.10
2022-09-09T16:39:52.985Z,17.80
2022-09-09T16:42:22.865Z,17.30
2022-09-09T16:44:52.757Z,17.10
2022-09-09T16:47:22.575Z,17.00
2022-09-09T16:49:54.906Z,16.80
2022-09-09T16:52:24.858Z,16.80
2022-09-09T16:54:54.603Z,16.60
2022-09-09T16:57:24.965Z,16.50
2022-09-09T16:59:56.868Z,16.50
2022-09-09T17:02:26.711Z,16.30
2022-09-09T17:04:59.094Z,16.20
2022-09-09T17:07:29.358Z,16.30
2022-09-09T17:09:59.110Z,16.50
2022-09-09T17:12:29.339Z,16.50
2022-09-09T17:15:00.115Z,16.60
2022-09-09T17:17:32.098Z,16.60
2022-09-09T17:20:07.566Z,16.70
2022-09-09T17:22:37.724Z,16.80
2022-09-09T17:25:08.482Z,16.80
2022-09-09T17:27:38.202Z,16.80
2022-09-09T17:30:08.924Z,16.80
2022-09-09T17:32:39.047Z,16.80
2022-09-09T17:35:12.572Z,16.80
2022-09-09T17:37:42.445Z,16.90
2022-09-09T17:40:12.638Z,16.90
2022-09-09T17:42:43.194Z,16.80
2022-09-09T17:45:13.584Z,16.80
2022-09-09T17:47:43.881Z,16.80
2022-09-09T17:50:16.346Z,16.80
2022-09-09T17:52:46.055Z,16.70
2022-09-09T17:55:16.707Z,16.70
2022-09-09T17:57:47.074Z,16.60
2022-09-09T18:00:17.568Z,16.70
2022-09-09T18:02:48.418Z,16.60
2022-09-09T18:05:21.308Z,16.60
2022-09-09T18:07:51.216Z,16.50
2022-09-09T18:10:21.051Z,16.40
2022-09-09T18:12:50.815Z,16.40
2022-09-09T18:15:33.525Z,16.40
2022-09-09T18:18:09.181Z,16.40
2022-09-09T18:20:41.585Z,16.50
2022-09-09T18:23:11.308Z,16.60
2022-09-09T18:25:42.124Z,16.70
2022-09-09T18:28:12.119Z,16.70
2022-09-09T18:30:43.046Z,16.70
2022-09-09T18:33:12.745Z,16.80
2022-09-09T18:35:46.660Z,16.80
2022-09-09T18:38:17.619Z,16.80
2022-09-09T18:40:47.450Z,16.70
2022-09-09T18:43:17.614Z,16.70
2022-09-09T18:45:47.309Z,16.70
2022-09-09T18:48:17.032Z,16.70
2022-09-09T18:50:49.759Z,16.50
2022-09-09T18:53:19.489Z,16.50
2022-09-09T18:55:49.213Z,16.50
2022-09-09T18:58:18.913Z,16.50
2022-09-09T19:00:49.323Z,16.50
2022-09-09T19:03:19.052Z,16.30
2022-09-09T19:05:51.507Z,16.30
2022-09-09T19:08:21.374Z,16.30
2022-09-09T19:10:51.742Z,16.20
2022-09-09T19:13:21.440Z,16.20
2022-09-09T19:15:51.667Z,16.10
2022-09-09T19:18:21.424Z,16.10
2022-09-09T19:20:54.025Z,16.00
2022-09-09T19:23:29.690Z,16.00
2022-09-09T19:26:06.218Z,16.00
2022-09-09T19:28:36.166Z,16.00
2022-09-09T19:31:07.079Z,15.90
2022-09-09T19:33:37.580Z,15.90
2022-09-09T19:36:10.756Z,15.90
2022-09-09T19:38:41.542Z,15.80
2022-09-09T19:41:13.630Z,15.90
2022-09-09T19:43:44.328Z,15.80
2022-09-09T19:46:15.667Z,15.80
2022-09-09T19:48:45.717Z,15.80
2022-09-09T19:51:21.594Z,15.80
2022-09-09T19:53:53.594Z,15.80
2022-09-09T19:56:25.639Z,15.80
2022-09-09T19:58:55.970Z,15.80
2022-09-09T20:01:28.084Z,15.70
2022-09-09T20:04:01.114Z,15.70
2022-09-09T20:06:35.153Z,15.70
2022-09-09T20:09:06.040Z,15.60
2022-09-09T20:11:38.441Z,15.60
2022-09-09T20:14:09.411Z,15.60
2022-09-09T20:16:39.310Z,15.50
2022-09-09T20:19:11.990Z,15.50
2022-09-09T20:21:48.001Z,15.50
2022-09-09T20:24:20.094Z,15.50
2022-09-09T20:26:50.716Z,15.50
2022-09-09T20:29:22.096Z,15.50
2022-09-09T20:31:52.043Z,15.40
2022-09-09T20:34:25.769Z,15.40
2022-09-09T20:36:59.275Z,15.30
2022-09-09T20:39:30.257Z,15.30
2022-09-09T20:42:00.468Z,15.30
2022-09-09T20:44:31.334Z,15.30
2022-09-09T20:47:06.479Z,15.40
2022-09-09T20:49:37.680Z,15.40
2022-09-09T20:52:11.669Z,15.30
2022-09-09T20:54:41.874Z,15.40
2022-09-09T20:57:11.948Z,15.50
2022-09-09T20:59:42.367Z,15.50
2022-09-09T21:02:13.821Z,15.50
2022-09-09T21:04:44.718Z,15.60
2022-09-09T21:07:17.027Z,15.70
2022-09-09T21:09:47.078Z,15.70
2022-09-09T21:12:16.956Z,15.70
2022-09-09T21:14:46.673Z,15.70
2022-09-09T21:17:17.400Z,15.50
2022-09-09T21:19:47.129Z,15.40
2022-09-09T21:22:19.595Z,15.40
2022-09-09T21:24:50.820Z,15.30
2022-09-09T21:27:20.553Z,15.40
2022-09-09T21:29:50.273Z,15.30
2022-09-09T21:32:21.399Z,15.20
2022-09-09T21:34:51.194Z,15.10
2022-09-09T21:37:24.066Z,15.10
2022-09-09T21:39:53.833Z,15.10
2022-09-09T21:42:23.557Z,15.10
2022-09-09T21:44:53.252Z,15.00
2022-09-09T21:47:22.957Z,15.00
2022-09-09T21:49:52.664Z,14.90
2022-09-09T21:52:24.974Z,14.90
2022-09-09T21:54:54.788Z,14.80
2022-09-09T21:57:25.146Z,14.80
2022-09-09T21:59:55.469Z,14.70
2022-09-09T22:02:25.376Z,14.70
2022-09-09T22:04:55.151Z,14.70
2022-09-09T22:07:27.518Z,14.70
2022-09-09T22:09:57.552Z,14.60
2022-09-09T22:12:27.861Z,14.60
2022-09-09T22:14:58.449Z,14.80
2022-09-09T22:17:28.278Z,14.90
2022-09-09T22:19:59.055Z,15.00
2022-09-09T22:22:31.540Z,15.00
2022-09-09T22:25:01.516Z,15.10
2022-09-09T22:27:31.233Z,15.10
2022-09-09T22:30:00.960Z,15.10
2022-09-09T22:32:31.228Z,15.10
2022-09-09T22:35:00.944Z,15.20
2022-09-09T22:37:33.267Z,15.10
2022-09-09T22:40:03.079Z,15.20
2022-09-09T22:42:33.086Z,15.30
2022-09-09T22:45:02.815Z,15.40
2022-09-09T22:47:32.547Z,15.50
2022-09-09T22:50:02.631Z,15.50
2022-09-09T22:52:35.012Z,15.60
2022-09-09T22:55:04.702Z,15.60
2022-09-09T22:57:34.434Z,15.50
2022-09-09T23:00:04.300Z,15.60
2022-09-09T23:02:38.726Z,15.50
2022-09-09T23:05:11.218Z,15.40
2022-09-09T23:07:43.579Z,15.10
2022-09-09T23:10:13.509Z,15.00
2022-09-09T23:12:43.801Z,14.80
2022-09-09T23:15:14.671Z,14.80
2022-09-09T23:17:44.589Z,14.80
2022-09-09T23:20:14.400Z,14.80
2022-09-09T23:22:46.821Z,14.90
2022-09-09T23:25:16.568Z,14.80
2022-09-09T23:27:46.321Z,14.80
2022-09-09T23:30:16.930Z,14.80
2022-09-09T23:32:47.039Z,14.70
2022-09-09T23:35:17.381Z,14.70
2022-09-09T23:37:49.748Z,14.70
2022-09-09T23:40:19.648Z,14.60
2022-09-09T23:42:49.390Z,14.50
2022-09-09T23:45:19.297Z,14.40
2022-09-09T23:47:49.017Z,14.40
2022-09-09T23:50:19.088Z,14.40
2022-09-09T23:52:52.301Z,14.30
2022-09-09T23:55:23.799Z,14.40
2022-09-09T23:57:55.045Z,14.30
